createdAt,value
2022-09-12T00:01:27.955Z,58.00
2022-09-12T00:03:58.607Z,57.86
2022-09-12T00:06:30.883Z,58.15
2022-09-12T00:09:01.660Z,58.04
2022-09-12T00:11:30.898Z,58.11
2022-09-12T00:14:00.863Z,57.57
2022-09-12T00:16:31.604Z,57.79
2022-09-12T00:19:00.597Z,57.83
2022-09-12T00:21:30.693Z,57.69
2022-09-12T00:23:59.372Z,57.58
2022-09-12T00:26:28.290Z,58.14
2022-09-12T00:28:56.925Z,57.70
2022-09-12T00:31:27.092Z,57.78
2022-09-12T00:33:57.706Z,57.92
2022-09-12T00:36:27.465Z,57.81
2022-09-12T00:38:57.574Z,57.67
2022-09-12T00:41:27.901Z,57.57
2022-09-12T00:43:58.492Z,57.72
2022-09-12T00:46:31.885Z,57.85
2022-09-12T00:49:03.256Z,57.81
2022-09-12T00:51:34.342Z,57.70
2022-09-12T00:54:07.411Z,57.65
2022-09-12T00:56:37.077Z,57.69
2022-09-12T00:59:08.478Z,57.87
2022-09-12T01:01:37.681Z,58.14
2022-09-12T01:04:06.416Z,57.85
2022-09-12T01:06:37.769Z,57.74
2022-09-12T01:09:08.697Z,57.79
2022-09-12T01:11:38.885Z,57.93
2022-09-12T01:14:08.025Z,58.00
2022-09-12T01:16:37.179Z,57.71
2022-09-12T01:19:20.212Z,57.86
2022-09-12T01:21:58.473Z,57.99
2022-09-12T01:24:48.024Z,57.83
2022-09-12T01:27:38.690Z,58.05
2022-09-12T01:30:24.901Z,57.92
2022-09-12T01:33:07.148Z,57.97
2022-09-12T01:35:40.990Z,57.61
2022-09-12T01:38:13.666Z,58.05
2022-09-12T01:40:48.004Z,57.69
2022-09-12T01:43:21.251Z,58.20
2022-09-12T01:45:57.937Z,57.85
2022-09-12T01:48:29.844Z,57.75
2022-09-12T01:51:00.479Z,58.16
2022-09-12T01:53:30.931Z,58.00
2022-09-12T01:56:03.619Z,57.88
2022-09-12T01:58:39.974Z,58.01
2022-09-12T02:01:13.788Z,57.71
2022-09-12T02:03:46.087Z,58.04
2022-09-12T02:06:20.399Z,58.06
2022-09-12T02:08:52.399Z,57.93
2022-09-12T02:11:21.406Z,58.07
2022-09-12T02:13:55.049Z,57.97
2022-09-12T02:16:30.659Z,58.19
2022-09-12T02:19:02.925Z,57.94
2022-09-12T02:21:33.079Z,57.68
2022-09-12T02:24:03.786Z,58.26
2022-09-12T02:26:35.331Z,58.16
2022-09-12T02:29:04.896Z,58.03
2022-09-12T02:31:39.917Z,57.93
2022-09-12T02:34:11.668Z,57.84
2022-09-12T02:36:50.005Z,58.03
2022-09-12T02:39:21.255Z,57.89
2022-09-12T02:41:52.026Z,58.06
2022-09-12T02:44:20.826Z,58.04
2022-09-12T02:46:52.894Z,57.98
2022-09-12T02:49:21.581Z,58.06
2022-09-12T02:51:50.683Z,58.07
2022-09-12T02:54:20.218Z,57.91
2022-09-12T02:56:48.660Z,58.10
2022-09-12T02:59:19.171Z,57.90
2022-09-12T03:02:10.554Z,58.08
2022-09-12T03:04:48.922Z,58.29
2022-09-12T03:07:22.144Z,57.94
2022-09-12T03:09:58.181Z,58.19
2022-09-12T03:12:35.638Z,58.10
2022-09-12T03:15:17.038Z,58.00
2022-09-12T03:18:02.009Z,58.02
2022-09-12T03:20:40.822Z,58.12
2022-09-12T03:23:15.664Z,58.15
2022-09-12T03:25:48.608Z,58.13
2022-09-12T03:28:17.971Z,57.96
2022-09-12T03:30:47.733Z,58.04
2022-09-12T03:33:19.199Z,58.06
2022-09-12T03:35:48.380Z,57.90
2022-09-12T03:38:16.834Z,58.13
2022-09-12T03:40:47.779Z,58.00
2022-09-12T03:43:17.794Z,57.99
2022-09-12T03:45:46.259Z,58.03
2022-09-12T03:48:14.963Z,58.02
2022-09-12T03:50:44.790Z,58.20
2022-09-12T03:53:17.086Z,57.48
2022-09-12T03:55:46.924Z,58.11
2022-09-12T03:58:15.306Z,57.71
2022-09-12T04:00:44.338Z,57.59
2022-09-12T04:03:12.792Z,57.85
2022-09-12T04:05:41.213Z,57.91
2022-09-12T04:08:11.106Z,57.55
2022-09-12T04:10:39.610Z,57.82
2022-09-12T04:13:08.119Z,57.64
2022-09-12T04:15:36.565Z,57.34
2022-09-12T04:18:06.249Z,57.42
2022-09-12T04:20:34.768Z,57.38
2022-09-12T04:23:03.226Z,57.23
2022-09-12T04:25:33.020Z,57.09
2022-09-12T04:28:01.515Z,57.18
2022-09-12T04:30:29.957Z,57.63
2022-09-12T04:32:58.389Z,57.51
2022-09-12T04:35:27.494Z,57.65
2022-09-12T04:37:55.865Z,57.55
2022-09-12T04:40:24.354Z,57.51
2022-09-12T04:42:56.046Z,57.57
2022-09-12T04:45:24.545Z,57.44
2022-09-12T04:47:53.137Z,57.70
2022-09-12T04:50:21.568Z,57.47
2022-09-12T04:52:51.087Z,57.54
2022-09-12T04:55:19.747Z,57.50
2022-09-12T04:57:48.288Z,57.51
2022-09-12T05:00:18.420Z,57.51
2022-09-12T05:02:46.937Z,57.37
2022-09-12T05:05:15.487Z,57.49
2022-09-12T05:07:43.995Z,57.54
2022-09-12T05:10:12.692Z,57.43
2022-09-12T05:12:41.249Z,57.59
2022-09-12T05:15:10.835Z,57.67
2022-09-12T05:17:40.609Z,57.46
2022-09-12T05:20:12.789Z,57.43
2022-09-12T05:22:41.272Z,57.38
2022-09-12T05:25:10.904Z,57.40
2022-09-12T05:27:39.485Z,57.40
2022-09-12T05:30:09.449Z,57.42
2022-09-12T05:32:37.995Z,57.32
2022-09-12T05:35:08.386Z,57.58
2022-09-12T05:37:37.347Z,57.42
2022-09-12T05:40:08.608Z,57.52
2022-09-12T05:42:37.175Z,57.49
2022-09-12T05:45:06.748Z,57.45
2022-09-12T05:47:35.485Z,57.54
2022-09-12T05:50:10.707Z,57.54
2022-09-12T05:52:40.492Z,57.42
2022-09-12T05:55:09.775Z,58.79
2022-09-12T05:57:40.499Z,59.07
2022-09-12T06:00:10.939Z,58.42
2022-09-12T06:02:41.920Z,58.52
2022-09-12T06:05:10.582Z,58.20
2022-09-12T06:07:40.436Z,58.11
2022-09-12T06:10:11.946Z,58.04
2022-09-12T06:12:40.544Z,57.87
2022-09-12T06:15:10.614Z,57.62
2022-09-12T06:17:39.146Z,57.86
2022-09-12T06:20:08.786Z,57.71
2022-09-12T06:22:37.496Z,57.90
2022-09-12T06:25:08.976Z,58.21
2022-09-12T06:27:37.390Z,57.92
2022-09-12T06:30:07.037Z,57.69
2022-09-12T06:32:36.546Z,57.67
2022-09-12T06:35:09.236Z,57.86
2022-09-12T06:37:37.793Z,57.83
2022-09-12T06:40:10.188Z,57.71
2022-09-12T06:42:38.670Z,57.59
2022-09-12T06:45:08.201Z,57.78
2022-09-12T06:47:37.188Z,57.61
2022-09-12T06:50:06.664Z,57.74
2022-09-12T06:52:35.459Z,57.54
2022-09-12T06:55:04.035Z,57.73
2022-09-12T06:57:36.454Z,57.57
2022-09-12T07:00:05.635Z,57.53
2022-09-12T07:02:34.178Z,57.55
2022-09-12T07:05:02.769Z,57.58
2022-09-12T07:07:34.324Z,57.74
2022-09-12T07:10:08.380Z,57.51
2022-09-12T07:12:39.807Z,57.67
2022-09-12T07:15:09.556Z,58.15
2022-09-12T07:17:38.195Z,58.17
2022-09-12T07:20:07.755Z,57.94
2022-09-12T07:22:36.240Z,58.08
2022-09-12T07:25:05.123Z,57.71
2022-09-12T07:27:33.538Z,58.20
2022-09-12T07:30:03.347Z,57.92
2022-09-12T07:32:31.997Z,57.99
2022-09-12T07:35:00.524Z,58.06
2022-09-12T07:37:31.593Z,58.17
2022-09-12T07:40:00.157Z,57.78
2022-09-12T07:42:37.260Z,58.56
2022-09-12T07:45:08.904Z,58.33
2022-09-12T07:47:39.749Z,58.49
2022-09-12T07:50:09.002Z,58.23
2022-09-12T07:52:37.434Z,57.86
2022-09-12T07:55:09.516Z,58.23
2022-09-12T07:57:39.142Z,58.14
2022-09-12T08:00:10.913Z,60.24
2022-09-12T08:02:41.961Z,60.65
2022-09-12T08:05:10.855Z,61.49
2022-09-12T08:07:39.349Z,60.29
2022-09-12T08:10:08.969Z,59.50
2022-09-12T08:12:37.577Z,59.41
2022-09-12T08:15:07.035Z,59.46
2022-09-12T08:17:36.806Z,59.61
2022-09-12T08:20:05.751Z,59.19
2022-09-12T08:22:34.637Z,59.17
2022-09-12T08:25:03.151Z,59.29
2022-09-12T08:27:31.567Z,58.97
2022-09-12T08:30:00.530Z,59.36
2022-09-12T08:32:29.059Z,59.47
2022-09-12T08:34:59.731Z,59.10
2022-09-12T08:37:31.207Z,58.96
2022-09-12T08:39:59.696Z,58.77
2022-09-12T08:42:39.363Z,59.45
2022-09-12T08:45:18.768Z,58.94
2022-09-12T08:47:48.880Z,59.85
2022-09-12T08:50:20.788Z,59.83
2022-09-12T08:52:58.111Z,60.17
2022-09-12T08:55:33.399Z,59.10
2022-09-12T08:58:03.344Z,59.51
2022-09-12T09:00:40.556Z,59.88
2022-09-12T09:03:32.036Z,59.41
2022-09-12T09:06:15.316Z,59.78
2022-09-12T09:08:51.174Z,59.49
2022-09-12T09:11:30.558Z,59.50
2022-09-12T09:14:24.987Z,59.32
2022-09-12T09:16:55.003Z,59.28
2022-09-12T09:19:28.038Z,60.10
2022-09-12T09:22:00.040Z,60.08
2022-09-12T09:24:33.860Z,59.80
2022-09-12T09:27:11.094Z,60.79
2022-09-12T09:29:54.146Z,60.19
2022-09-12T09:32:27.691Z,60.32
2022-09-12T09:34:56.494Z,60.08
2022-09-12T09:37:32.282Z,59.46
2022-09-12T09:40:04.230Z,60.38
2022-09-12T09:42:44.750Z,59.53
2022-09-12T09:45:16.143Z,60.61
2022-09-12T09:47:46.761Z,60.24
2022-09-12T09:50:17.702Z,59.92
2022-09-12T09:52:48.539Z,60.19
2022-09-12T09:55:22.119Z,60.15
2022-09-12T09:57:52.394Z,59.50
2022-09-12T10:00:28.707Z,59.17
2022-09-12T10:03:17.312Z,59.49
2022-09-12T10:05:47.910Z,59.22
2022-09-12T10:08:28.649Z,59.93
2022-09-12T10:11:06.666Z,59.92
2022-09-12T10:13:41.736Z,60.40
2022-09-12T10:16:20.387Z,60.77
2022-09-12T10:18:51.019Z,59.89
2022-09-12T10:21:23.528Z,60.53
2022-09-12T10:24:01.013Z,59.54
2022-09-12T10:26:34.049Z,59.03
2022-09-12T10:29:06.571Z,59.63
2022-09-12T10:31:43.111Z,59.06
2022-09-12T10:34:21.894Z,60.11
2022-09-12T10:36:50.365Z,59.48
2022-09-12T10:39:20.830Z,58.89
2022-09-12T10:41:49.424Z,59.67
2022-09-12T10:44:19.516Z,59.02
2022-09-12T10:46:49.202Z,58.95
2022-09-12T10:49:27.881Z,59.25
2022-09-12T10:51:59.650Z,58.97
2022-09-12T10:54:29.741Z,59.04
2022-09-12T10:57:30.645Z,59.07
2022-09-12T11:00:12.740Z,58.92
2022-09-12T11:03:00.041Z,58.83
2022-09-12T11:05:45.405Z,58.63
2022-09-12T11:08:21.922Z,58.64
2022-09-12T11:10:57.090Z,58.87
2022-09-12T11:13:38.468Z,58.38
2022-09-12T11:16:23.142Z,58.59
2022-09-12T11:19:10.767Z,58.25
2022-09-12T11:21:54.780Z,58.01
2022-09-12T11:24:48.354Z,58.02
2022-09-12T11:27:30.955Z,58.08
2022-09-12T11:30:00.715Z,58.10
2022-09-12T11:32:51.052Z,58.06
2022-09-12T11:35:25.733Z,57.87
2022-09-12T11:38:25.686Z,57.51
2022-09-12T11:40:55.970Z,57.49
2022-09-12T11:43:36.932Z,57.22
2022-09-12T11:46:14.739Z,57.17
2022-09-12T11:48:54.715Z,56.99
2022-09-12T11:51:27.434Z,57.16
2022-09-12T11:54:02.575Z,57.05
2022-09-12T11:56:31.082Z,56.98
2022-09-12T11:59:06.218Z,56.86
2022-09-12T12:01:46.370Z,56.68
2022-09-12T12:04:20.457Z,56.73
2022-09-12T12:06:53.849Z,56.86
2022-09-12T12:09:23.460Z,56.66
2022-09-12T12:11:56.057Z,56.67
2022-09-12T12:14:30.615Z,56.67
2022-09-12T12:16:59.610Z,56.36
2022-09-12T12:19:34.305Z,56.11
2022-09-12T12:22:16.987Z,55.92
2022-09-12T12:25:06.803Z,55.62
2022-09-12T12:27:51.676Z,55.51
2022-09-12T12:31:01.017Z,55.63
2022-09-12T12:34:15.631Z,55.73
2022-09-12T12:36:46.484Z,56.10
2022-09-12T12:40:02.878Z,55.58
2022-09-12T12:43:05.151Z,55.92
2022-09-12T12:46:02.137Z,54.88
2022-09-12T12:48:55.454Z,54.66
2022-09-12T12:51:46.876Z,54.70
2022-09-12T12:54:31.817Z,54.93
2022-09-12T12:57:18.326Z,55.26
2022-09-12T12:59:53.258Z,54.99
2022-09-12T13:02:25.387Z,55.13
2022-09-12T13:04:54.151Z,54.88
2022-09-12T13:07:30.529Z,54.70
2022-09-12T13:10:02.035Z,54.89
2022-09-12T13:12:33.928Z,54.60
2022-09-12T13:15:03.910Z,54.67
2022-09-12T13:17:38.585Z,54.66
2022-09-12T13:20:29.261Z,54.39
2022-09-12T13:22:59.496Z,54.61
2022-09-12T13:25:32.104Z,54.96
2022-09-12T13:28:03.674Z,54.92
2022-09-12T13:30:33.814Z,54.83
2022-09-12T13:33:19.606Z,54.64
2022-09-12T13:36:06.921Z,54.59
2022-09-12T13:38:40.696Z,53.90
2022-09-12T13:41:23.036Z,54.19
2022-09-12T13:43:52.251Z,54.21
2022-09-12T13:46:26.235Z,54.67
2022-09-12T13:48:55.080Z,54.51
2022-09-12T13:51:26.436Z,54.24
2022-09-12T13:53:57.615Z,54.54
2022-09-12T13:56:27.719Z,54.48
2022-09-12T13:58:58.124Z,54.17
2022-09-12T14:01:38.938Z,54.09
2022-09-12T14:04:34.268Z,54.08
2022-09-12T14:07:10.057Z,54.06
2022-09-12T14:09:41.663Z,54.21
2022-09-12T14:12:25.236Z,54.00
2022-09-12T14:14:54.464Z,53.73
2022-09-12T14:17:29.752Z,54.20
2022-09-12T14:19:59.462Z,53.82
2022-09-12T14:22:29.835Z,53.99
2022-09-12T14:24:59.603Z,53.85
2022-09-12T14:27:33.136Z,53.86
2022-09-12T14:30:03.223Z,54.12
2022-09-12T14:32:31.773Z,54.21
2022-09-12T14:35:20.369Z,54.04
2022-09-12T14:37:50.985Z,54.13
2022-09-12T14:40:22.382Z,54.00
2022-09-12T14:42:55.980Z,53.92
2022-09-12T14:45:29.926Z,53.79
2022-09-12T14:47:59.581Z,54.02
2022-09-12T14:50:31.276Z,53.81
2022-09-12T14:53:07.930Z,53.83
2022-09-12T14:55:43.910Z,53.76
2022-09-12T14:58:23.644Z,53.74
2022-09-12T15:00:57.801Z,53.89
2022-09-12T15:03:30.058Z,53.46
2022-09-12T15:06:00.664Z,53.54
2022-09-12T15:08:38.812Z,53.67
2022-09-12T15:11:08.593Z,53.55
2022-09-12T15:13:43.023Z,53.66
2022-09-12T15:16:13.229Z,53.67
2022-09-12T15:18:42.324Z,53.70
2022-09-12T15:21:13.758Z,53.58
2022-09-12T15:23:44.688Z,53.59
2022-09-12T15:26:14.611Z,53.87
2022-09-12T15:28:46.252Z,53.82
2022-09-12T15:31:19.533Z,54.03
2022-09-12T15:33:48.165Z,53.75
2022-09-12T15:36:19.044Z,53.72
2022-09-12T15:38:48.858Z,53.97
2022-09-12T15:41:19.473Z,53.19
2022-09-12T15:44:08.609Z,53.89
2022-09-12T15:46:43.115Z,53.22
2022-09-12T15:49:13.184Z,53.36
2022-09-12T15:51:41.612Z,53.39
2022-09-12T15:54:11.726Z,53.33
2022-09-12T15:56:41.218Z,53.35
2022-09-12T15:59:11.311Z,53.08
2022-09-12T16:01:39.733Z,53.19
2022-09-12T16:04:21.277Z,52.92
2022-09-12T16:06:49.898Z,53.30
2022-09-12T16:09:18.844Z,53.26
2022-09-12T16:11:47.843Z,53.29
2022-09-12T16:14:18.841Z,53.12
2022-09-12T16:16:53.736Z,53.18
2022-09-12T16:19:22.454Z,52.85
2022-09-12T16:21:50.879Z,52.86
2022-09-12T16:24:19.330Z,53.16
2022-09-12T16:26:47.734Z,52.90
2022-09-12T16:29:17.599Z,53.00
2022-09-12T16:31:47.255Z,53.29
2022-09-12T16:34:16.142Z,53.18
2022-09-12T16:36:45.355Z,53.36
2022-09-12T16:39:13.953Z,53.14
2022-09-12T16:41:42.730Z,53.23
2022-09-12T16:44:11.391Z,53.20
2022-09-12T16:46:42.437Z,53.58
2022-09-12T16:49:11.989Z,53.73
2022-09-12T16:51:43.841Z,53.97
2022-09-12T16:54:13.956Z,53.55
2022-09-12T16:56:42.802Z,54.01
2022-09-12T16:59:16.167Z,54.12
2022-09-12T17:01:46.165Z,54.17
2022-09-12T17:04:14.713Z,54.11
2022-09-12T17:06:44.058Z,54.10
2022-09-12T17:09:18.405Z,54.13
2022-09-12T17:11:49.580Z,54.26
2022-09-12T17:14:17.988Z,54.16
2022-09-12T17:16:51.736Z,54.37
2022-09-12T17:19:22.550Z,54.38
2022-09-12T17:21:50.909Z,54.29
2022-09-12T17:24:21.223Z,54.28
2022-09-12T17:26:50.308Z,54.68
2022-09-12T17:29:19.397Z,54.31
2022-09-12T17:31:49.190Z,54.37
2022-09-12T17:34:18.265Z,54.40
2022-09-12T17:36:48.432Z,54.76
2022-09-12T17:39:17.075Z,54.74
2022-09-12T17:41:46.051Z,55.10
2022-09-12T17:44:15.976Z,55.07
2022-09-12T17:46:44.869Z,54.67
2022-09-12T17:49:16.118Z,55.05
2022-09-12T17:51:45.042Z,55.26
2022-09-12T17:54:15.709Z,55.21
2022-09-12T17:56:45.507Z,55.31
2022-09-12T17:59:15.813Z,54.99
2022-09-12T18:02:06.486Z,55.21
2022-09-12T18:04:37.523Z,55.75
2022-09-12T18:07:09.779Z,55.41
2022-09-12T18:09:39.535Z,55.87
2022-09-12T18:12:08.780Z,55.68
2022-09-12T18:14:37.652Z,55.59
2022-09-12T18:17:08.674Z,55.69
2022-09-12T18:19:39.650Z,55.63
2022-09-12T18:22:15.406Z,55.94
2022-09-12T18:24:44.630Z,55.72
2022-09-12T18:27:13.043Z,55.66
2022-09-12T18:29:41.466Z,55.91
2022-09-12T18:32:10.906Z,56.07
2022-09-12T18:34:41.246Z,55.91
2022-09-12T18:37:09.622Z,56.09
2022-09-12T18:39:40.884Z,56.17
2022-09-12T18:42:09.315Z,56.11
2022-09-12T18:44:37.727Z,56.38
2022-09-12T18:47:06.757Z,56.56
2022-09-12T18:49:35.618Z,56.24
2022-09-12T18:52:07.580Z,56.36
2022-09-12T18:54:37.343Z,56.31
2022-09-12T18:57:05.924Z,56.41
2022-09-12T18:59:34.482Z,56.50
2022-09-12T19:02:03.039Z,56.28
2022-09-12T19:04:33.202Z,56.78
2022-09-12T19:07:02.173Z,56.34
2022-09-12T19:09:32.039Z,56.28
2022-09-12T19:12:00.710Z,56.07
2022-09-12T19:14:30.269Z,56.37
2022-09-12T19:16:59.709Z,56.52
2022-09-12T19:19:28.718Z,56.58
2022-09-12T19:21:57.344Z,56.47
2022-09-12T19:24:26.809Z,56.52
2022-09-12T19:26:58.946Z,56.74
2022-09-12T19:29:28.891Z,56.57
2022-09-12T19:31:57.562Z,56.54
2022-09-12T19:34:26.033Z,56.96
2022-09-12T19:36:54.599Z,56.62
2022-09-12T19:39:23.943Z,56.46
2022-09-12T19:41:53.412Z,56.62
2022-09-12T19:44:23.738Z,56.59
2022-09-12T19:46:52.687Z,56.60
2022-09-12T19:49:22.170Z,56.40
2022-09-12T19:51:50.599Z,56.42
2022-09-12T19:54:20.158Z,56.43
2022-09-12T19:56:48.649Z,56.52
2022-09-12T19:59:17.111Z,56.14
2022-09-12T20:01:47.119Z,56.23
2022-09-12T20:04:17.565Z,56.19
2022-09-12T20:06:46.402Z,56.25
2022-09-12T20:09:14.813Z,56.31
2022-09-12T20:11:43.256Z,56.22
2022-09-12T20:14:11.707Z,56.38
2022-09-12T20:16:41.885Z,56.49
2022-09-12T20:19:11.973Z,56.29
2022-09-12T20:21:41.116Z,56.37
2022-09-12T20:24:12.969Z,56.37
2022-09-12T20:26:41.667Z,57.00
2022-09-12T20:29:11.932Z,56.70
2022-09-12T20:31:41.832Z,56.81
2022-09-12T20:34:15.551Z,56.70
2022-09-12T20:36:43.988Z,56.47
2022-09-12T20:39:14.833Z,56.71
2022-09-12T20:41:43.371Z,56.62
2022-09-12T20:44:12.409Z,56.58
2022-09-12T20:46:40.967Z,56.66
2022-09-12T20:49:16.229Z,56.40
2022-09-12T20:51:45.177Z,56.67
2022-09-12T20:54:14.032Z,56.62
2022-09-12T20:56:42.627Z,56.54
2022-09-12T20:59:12.566Z,56.66
2022-09-12T21:01:44.662Z,56.32
2022-09-12T21:04:15.236Z,56.68
2022-09-12T21:06:46.229Z,56.50
2022-09-12T21:09:14.833Z,56.67
2022-09-12T21:11:43.463Z,56.50
2022-09-12T21:14:11.871Z,56.54
2022-09-12T21:16:40.347Z,56.41
2022-09-12T21:19:09.235Z,56.53
2022-09-12T21:21:37.780Z,56.69
2022-09-12T21:24:08.534Z,56.72
2022-09-12T21:26:37.044Z,56.64
2022-09-12T21:29:06.266Z,56.56
2022-09-12T21:31:36.087Z,56.75
2022-09-12T21:34:08.887Z,56.42
2022-09-12T21:36:38.097Z,56.41
2022-09-12T21:39:08.490Z,56.49
2022-09-12T21:41:36.899Z,56.63
2022-09-12T21:44:05.328Z,56.48
2022-09-12T21:46:33.900Z,56.61
2022-09-12T21:49:02.719Z,56.66
2022-09-12T21:51:31.387Z,56.81
2022-09-12T21:54:00.509Z,56.14
2022-09-12T21:56:31.251Z,56.48
2022-09-12T21:58:59.822Z,56.41
2022-09-12T22:01:28.480Z,56.61
2022-09-12T22:03:56.980Z,56.50
2022-09-12T22:06:25.490Z,56.68
2022-09-12T22:08:53.906Z,56.68
2022-09-12T22:11:22.900Z,56.82
2022-09-12T22:13:52.737Z,56.95
2022-09-12T22:16:21.148Z,56.66
2022-09-12T22:18:50.655Z,56.58
2022-09-12T22:21:21.984Z,56.75
2022-09-12T22:24:08.061Z,56.58
2022-09-12T22:26:42.114Z,56.34
2022-09-12T22:29:13.288Z,56.81
2022-09-12T22:31:41.808Z,56.84
2022-09-12T22:34:10.861Z,56.95
2022-09-12T22:36:39.427Z,56.61
2022-09-12T22:39:08.674Z,56.60
2022-09-12T22:41:37.177Z,56.62
2022-09-12T22:44:06.505Z,56.51
2022-09-12T22:46:36.482Z,56.50
2022-09-12T22:49:05.144Z,56.44
2022-09-12T22:51:33.820Z,56.46
2022-09-12T22:54:02.435Z,56.46
2022-09-12T22:56:30.858Z,56.43
2022-09-12T22:58:59.524Z,56.58
2022-09-12T23:01:28.105Z,56.58
2022-09-12T23:03:58.163Z,56.41
2022-09-12T23:06:26.819Z,56.87
2022-09-12T23:08:56.075Z,56.34
2022-09-12T23:11:25.028Z,56.42
2022-09-12T23:13:53.479Z,56.38
2022-09-12T23:16:23.154Z,56.22
2022-09-12T23:18:51.832Z,56.27
2022-09-12T23:21:22.946Z,56.17
2022-09-12T23:23:51.831Z,56.08
2022-09-12T23:26:22.576Z,55.62
2022-09-12T23:28:52.799Z,56.18
2022-09-12T23:31:21.557Z,56.20
2022-09-12T23:33:50.555Z,56.04
2022-09-12T23:36:19.012Z,55.86
2022-09-12T23:38:49.188Z,55.85
2022-09-12T23:41:19.211Z,56.00
2022-09-12T23:43:47.787Z,56.04
2022-09-12T23:46:17.252Z,55.82
2022-09-12T23:48:45.995Z,55.82
2022-09-12T23:51:14.737Z,55.92
2022-09-12T23:53:43.295Z,55.68
2022-09-12T23:56:13.031Z,55.96
2022-09-12T23:58:41.778Z,55.98
